KLSF/LSF METAR and TAF weather

Enter ICAO airport designator
Station Type Date Time Source
KLSF METAR 2020/07/11 17:56 UTC NOAA

KLSF 111756Z AUTO 32015G19KT 10SM FEW160 SCT190 32/17 A2989 RMK AO2 SLP124 T03240174 10326 20249 57016 $


Station Type Date Time Source
KLSF Decoded METAR 2020/07/11 17:56 UTC NOAA

Fort Benning, GA, United States (KLSF) 32-20N 084-50W 130M
Jul 11, 2020 - 01:56 PM EDT / 2020.07.11 1756 UTC
Wind: from the NW (320 degrees) at 17 MPH (15 KT) gusting to 22 MPH (19 KT):0
Visibility: 10 mile(s):0
Sky conditions: partly cloudy
Temperature: 90.3 F (32.4 C)
Dew Point: 63.3 F (17.4 C)
Relative Humidity: 40%
Pressure (altimeter): 29.89 in. Hg (1012 hPa)
Pressure tendency: 0.05 inches (1.6 hPa) lower than three hours ago
ob: KLSF 111756Z AUTO 32015G19KT 10SM FEW160 SCT190 32/17 A2989 RMK AO2 SLP124 T03240174 10326 20249 57016
cycle: 18

Station Type Date Time Source
KLSF TAF 2020/07/11 15:15 UTC NOAA

TAF TAF
AMD KLSF 111505Z 1115/1215 VRB06KT 8000 BR FEW035 QNH2986INS
BECMG 1115/1116 35010G15KT 9999 NSW SKC QNH2984INS
BECMG 1203/1204 VRB06KT 9999 SKC QNH2987INS TX35/1121Z TN19/1211Z LAST NO
AMDS AFT 1115 NEXT 1309

Example: see airport list